Time;durP1;ratioP1;P1;durP2;ratioP2;P2;SDS_P1;SDS_P2;PMS_P1;PMS_P2;Temp;Humidity;BMP_temperature;BMP_pressure;BME280_temperature;BME280_humidity;BME280_pressure;Samples;Min_cycle;Max_cycle;Signal;HPM_P1;HPM_P2
2023/08/04 00:01:54;;;;;;;5.80;2.20;;;16.80;99.90;;;;;;5093528;28;21543;-59
2023/08/04 00:04:20;;;;;;;8.65;1.85;;;16.80;99.90;;;;;;5093797;28;20032;-57
2023/08/04 00:06:45;;;;;;;7.70;1.98;;;16.70;99.90;;;;;;5093624;28;20036;-58
2023/08/04 00:09:11;;;;;;;14.45;2.58;;;16.80;99.90;;;;;;5093577;28;20466;-59
2023/08/04 00:11:36;;;;;;;8.65;2.13;;;16.80;99.90;;;;;;5093572;28;20063;-58
2023/08/04 00:14:02;;;;;;;10.02;2.40;;;16.80;99.90;;;;;;5093604;28;20032;-58
2023/08/04 00:16:28;;;;;;;6.38;1.70;;;16.80;99.90;;;;;;5093736;28;20435;-59
2023/08/04 00:18:53;;;;;;;4.90;1.55;;;16.70;99.90;;;;;;5102374;28;20067;-59
2023/08/04 00:21:19;;;;;;;11.60;2.08;;;16.70;99.90;;;;;;5102674;28;20426;-59
2023/08/04 00:23:44;;;;;;;9.73;1.70;;;16.70;99.90;;;;;;5113095;27;20086;-58
2023/08/04 00:26:11;;;;;;;8.07;1.88;;;16.70;99.90;;;;;;5101714;28;20027;-58
2023/08/04 00:28:36;;;;;;;7.60;1.90;;;16.70;99.90;;;;;;5113451;27;20586;-58
2023/08/04 00:31:02;;;;;;;8.02;1.63;;;16.70;99.90;;;;;;5111980;28;20039;-58
2023/08/04 00:33:28;;;;;;;5.45;1.67;;;16.60;99.90;;;;;;5106598;28;20474;-58
2023/08/04 00:35:54;;;;;;;5.25;1.58;;;16.60;99.90;;;;;;5092925;28;20043;-59
2023/08/04 00:38:19;;;;;;;5.47;1.80;;;16.60;99.90;;;;;;5092745;28;20059;-57
2023/08/04 00:40:45;;;;;;;9.13;1.70;;;16.60;99.90;;;;;;5091361;28;20042;-58
2023/08/04 00:43:12;;;;;;;13.60;2.05;;;16.60;99.90;;;;;;5092703;28;20081;-58
2023/08/04 00:45:38;;;;;;;32.13;3.60;;;16.50;99.90;;;;;;5092760;28;20089;-57
2023/08/04 00:48:04;;;;;;;5.78;1.83;;;16.50;99.90;;;;;;5092887;28;20072;-59
2023/08/04 00:50:31;;;;;;;9.38;1.60;;;16.50;99.90;;;;;;5096533;28;20071;-59
2023/08/04 00:52:56;;;;;;;7.65;2.03;;;16.40;99.90;;;;;;5111827;28;20047;-58
2023/08/04 00:55:23;;;;;;;7.63;2.15;;;16.50;99.90;;;;;;5106535;28;20031;-59
2023/08/04 00:57:49;;;;;;;8.75;2.08;;;16.50;99.90;;;;;;5113044;28;20039;-58
2023/08/04 01:00:15;;;;;;;7.22;1.70;;;16.50;99.90;;;;;;5112844;28;20417;-58
2023/08/04 01:02:40;;;;;;;9.95;1.92;;;16.50;99.90;;;;;;5113004;28;20038;-59
2023/08/04 01:05:06;;;;;;;8.88;1.83;;;16.40;99.90;;;;;;5113058;28;20039;-59
2023/08/04 01:07:55;;;;;;;4.78;1.30;;;16.40;99.90;;;;;;5112774;28;20043;-58
2023/08/04 01:10:28;;;;;;;7.75;1.80;;;16.40;99.90;;;;;;5112635;28;20040;-59
2023/08/04 01:13:00;;;;;;;4.53;1.23;;;16.40;99.90;;;;;;5112675;28;20477;-59
2023/08/04 01:15:27;;;;;;;7.63;1.60;;;16.40;99.90;;;;;;5112758;28;20043;-58
2023/08/04 01:17:57;;;;;;;9.15;1.50;;;16.40;99.90;;;;;;5112768;28;20155;-59
2023/08/04 01:20:26;;;;;;;5.65;1.30;;;16.50;99.90;;;;;;5103497;28;20039;-59
2023/08/04 01:22:52;;;;;;;9.18;2.30;;;16.40;99.90;;;;;;5102886;28;20437;-59
2023/08/04 01:25:34;;;;;;;9.95;1.40;;;16.40;99.90;;;;;;5103338;28;20494;-59
2023/08/04 01:28:11;;;;;;;7.85;1.92;;;16.40;99.90;;;;;;5108140;28;20481;-58
2023/08/04 01:30:38;;;;;;;4.60;1.38;;;16.40;99.90;;;;;;5112539;28;20164;-58
2023/08/04 01:33:04;;;;;;;8.30;1.95;;;16.40;99.90;;;;;;5112883;28;20035;-59
2023/08/04 01:35:30;;;;;;;7.30;1.50;;;16.40;99.90;;;;;;5112340;28;20062;-59
2023/08/04 01:37:55;;;;;;;7.05;1.33;;;16.40;99.90;;;;;;5112059;28;20048;-59
2023/08/04 01:40:21;;;;;;;6.20;1.63;;;16.40;99.90;;;;;;5112374;28;20084;-58
2023/08/04 01:42:47;;;;;;;5.57;2.15;;;16.40;99.90;;;;;;5112375;28;20466;-58
2023/08/04 01:45:12;;;;;;;4.47;1.98;;;16.40;99.90;;;;;;5112394;28;20434;-58
2023/08/04 01:47:39;;;;;;;9.85;1.70;;;16.40;99.90;;;;;;5112086;28;20092;-59
2023/08/04 01:50:07;;;;;;;8.50;1.90;;;16.40;99.90;;;;;;5103779;28;20504;-58
2023/08/04 01:52:33;;;;;;;6.07;1.80;;;16.40;99.90;;;;;;5107324;28;20377;-56
2023/08/04 01:54:58;;;;;;;6.18;1.15;;;16.40;99.90;;;;;;5111952;28;20114;-58
2023/08/04 01:57:24;;;;;;;7.50;1.75;;;16.40;99.90;;;;;;5112006;28;20127;-58
2023/08/04 01:59:50;;;;;;;5.43;2.08;;;16.40;99.90;;;;;;5112009;28;20042;-58
2023/08/04 02:02:15;;;;;;;9.73;1.98;;;16.40;99.90;;;;;;5112159;28;20040;-58
2023/08/04 02:04:41;;;;;;;9.50;1.58;;;16.40;99.90;;;;;;5110604;28;20048;-58
2023/08/04 02:07:06;;;;;;;7.55;1.80;;;16.40;99.90;;;;;;5112234;28;20450;-58
2023/08/04 02:09:33;;;;;;;5.70;1.55;;;16.40;99.90;;;;;;5111848;28;20131;-57
2023/08/04 02:11:59;;;;;;;7.78;1.67;;;16.30;99.90;;;;;;5111901;28;20481;-58
2023/08/04 02:14:28;;;;;;;5.72;1.80;;;16.40;99.90;;;;;;5112204;28;20151;-58
2023/08/04 02:16:54;;;;;;;4.85;1.55;;;16.40;99.90;;;;;;5111951;28;20149;-58
2023/08/04 02:19:23;;;;;;;4.75;1.80;;;16.40;99.90;;;;;;5111851;28;20096;-57
2023/08/04 02:21:49;;;;;;;5.20;1.55;;;16.40;99.90;;;;;;5111939;28;20137;-57
2023/08/04 02:24:15;;;;;;;7.15;1.90;;;16.40;99.90;;;;;;5111888;28;20587;-57
2023/08/04 02:26:41;;;;;;;6.45;1.98;;;16.50;99.90;;;;;;5111789;28;20474;-57
2023/08/04 02:29:06;;;;;;;5.60;1.67;;;16.50;99.90;;;;;;5111891;28;20126;-58
2023/08/04 02:31:33;;;;;;;5.88;1.58;;;16.50;99.90;;;;;;5112214;28;20185;-58
2023/08/04 02:33:59;;;;;;;7.38;1.92;;;16.50;99.90;;;;;;5111759;28;20059;-58
2023/08/04 02:36:25;;;;;;;6.22;1.20;;;16.50;99.90;;;;;;5112238;28;20035;-57
2023/08/04 02:38:51;;;;;;;4.00;1.60;;;16.60;99.90;;;;;;5111423;28;21495;-58
2023/08/04 02:41:17;;;;;;;7.20;1.38;;;16.50;99.90;;;;;;5111862;28;20052;-57
2023/08/04 02:43:42;;;;;;;3.65;1.40;;;16.50;99.90;;;;;;5111427;28;20043;-57
2023/08/04 02:46:10;;;;;;;6.35;1.70;;;16.60;99.90;;;;;;5111692;28;20036;-58
2023/08/04 02:48:37;;;;;;;3.57;1.80;;;16.50;99.90;;;;;;5111443;28;20067;-58
2023/08/04 02:51:07;;;;;;;8.20;2.38;;;16.50;99.90;;;;;;5111715;28;20031;-57
2023/08/04 02:53:34;;;;;;;4.75;2.15;;;16.50;99.90;;;;;;5111893;28;20036;-58
2023/08/04 02:56:07;;;;;;;4.07;1.90;;;16.40;99.90;;;;;;5111784;28;20419;-57
2023/08/04 02:58:32;;;;;;;5.30;1.98;;;16.40;99.90;;;;;;5111518;28;20032;-57
2023/08/04 03:00:59;;;;;;;7.55;2.38;;;16.40;99.90;;;;;;5111274;28;20081;-58
2023/08/04 03:03:25;;;;;;;5.80;2.30;;;16.30;99.90;;;;;;5113283;28;20039;-58
2023/08/04 03:05:50;;;;;;;7.70;2.75;;;16.30;99.90;;;;;;5115263;28;20043;-57
2023/08/04 03:08:16;;;;;;;5.93;2.42;;;16.30;99.90;;;;;;5115739;28;20722;-60
2023/08/04 03:10:42;;;;;;;5.13;2.17;;;16.30;99.90;;;;;;5115217;28;20035;-59
2023/08/04 03:13:09;;;;;;;6.50;2.67;;;16.30;99.90;;;;;;5115318;28;20050;-58
2023/08/04 03:15:35;;;;;;;5.65;2.42;;;16.30;99.90;;;;;;5114933;28;20111;-58
2023/08/04 03:18:01;;;;;;;4.82;2.40;;;16.20;99.90;;;;;;5114785;28;20043;-58
2023/08/04 03:20:28;;;;;;;5.47;3.20;;;16.20;99.90;;;;;;5114935;28;20043;-58
2023/08/04 03:22:54;;;;;;;3.95;2.33;;;16.10;99.90;;;;;;5114855;28;20035;-58
2023/08/04 03:25:19;;;;;;;6.60;2.08;;;16.10;99.90;;;;;;5114884;28;20080;-59
2023/08/04 03:27:45;;;;;;;3.47;2.35;;;16.10;99.90;;;;;;5114848;28;20485;-58
2023/08/04 03:30:11;;;;;;;6.97;2.17;;;16.10;99.90;;;;;;5114257;28;20046;-58
2023/08/04 03:32:37;;;;;;;5.30;2.65;;;16.00;99.90;;;;;;5114922;28;20035;-58
2023/08/04 03:35:04;;;;;;;5.03;1.83;;;16.00;99.90;;;;;;5114766;28;20064;-58
2023/08/04 03:37:29;;;;;;;5.38;2.25;;;15.90;99.90;;;;;;5114349;28;20100;-60
2023/08/04 03:39:55;;;;;;;5.55;2.13;;;15.90;99.90;;;;;;5113517;28;20087;-59
2023/08/04 03:42:21;;;;;;;7.13;1.95;;;15.80;99.90;;;;;;5114329;28;20046;-58
2023/08/04 03:44:46;;;;;;;4.78;2.22;;;15.90;99.90;;;;;;5114221;28;20481;-58
2023/08/04 03:47:12;;;;;;;5.50;2.28;;;15.90;99.90;;;;;;5113367;28;20035;-58
2023/08/04 03:49:37;;;;;;;3.60;2.05;;;15.90;99.90;;;;;;5114244;27;20043;-58
2023/08/04 03:52:03;;;;;;;3.72;2.35;;;15.80;99.90;;;;;;5114148;28;20447;-58
2023/08/04 03:54:29;;;;;;;11.63;2.45;;;15.80;99.90;;;;;;5114376;28;20036;-58
2023/08/04 03:56:55;;;;;;;4.80;2.45;;;15.80;99.90;;;;;;5114332;28;20046;-58
2023/08/04 03:59:20;;;;;;;6.20;1.88;;;15.80;99.90;;;;;;5114634;28;20082;-58
2023/08/04 04:01:46;;;;;;;4.50;2.20;;;15.80;99.90;;;;;;5114201;28;20035;-58
2023/08/04 04:04:12;;;;;;;5.47;2.00;;;15.80;99.90;;;;;;5114099;28;20032;-57
2023/08/04 04:06:37;;;;;;;7.05;2.20;;;15.80;99.90;;;;;;5114122;28;20040;-58
2023/08/04 04:09:03;;;;;;;5.43;1.92;;;15.90;99.90;;;;;;5113779;28;20111;-57
2023/08/04 04:11:29;;;;;;;3.35;1.92;;;16.00;99.90;;;;;;5113969;28;20036;-58
2023/08/04 04:13:55;;;;;;;5.93;1.83;;;15.90;99.90;;;;;;5113421;28;20089;-58
2023/08/04 04:16:21;;;;;;;3.47;1.83;;;16.00;99.90;;;;;;5113680;28;20028;-58
2023/08/04 04:18:46;;;;;;;4.35;1.70;;;16.00;99.90;;;;;;5114168;28;20130;-58
2023/08/04 04:21:12;;;;;;;8.82;2.15;;;16.00;99.90;;;;;;5113836;28;20210;-57
2023/08/04 04:23:38;;;;;;;4.50;2.38;;;16.00;99.90;;;;;;5114016;28;20092;-57
2023/08/04 04:26:07;;;;;;;4.35;1.90;;;16.00;99.90;;;;;;5113408;28;20054;-57
2023/08/04 04:28:32;;;;;;;;;;;15.90;99.90;;;;;;5113922;28;20031;-57
2023/08/04 04:31:02;;;;;;;4.03;1.73;;;15.90;99.90;;;;;;5113532;28;19967;-57
2023/08/04 04:33:28;;;;;;;3.92;2.17;;;15.80;99.90;;;;;;5113647;28;20067;-57
2023/08/04 04:35:54;;;;;;;3.42;1.95;;;15.80;99.90;;;;;;5113639;28;20063;-58
2023/08/04 04:38:20;;;;;;;5.57;2.28;;;15.80;99.90;;;;;;5113239;28;20561;-58
2023/08/04 04:41:00;;;;;;;4.18;2.08;;;15.80;99.90;;;;;;5113325;28;20047;-58
2023/08/04 04:43:26;;;;;;;3.78;2.40;;;15.90;99.90;;;;;;5098185;28;20032;-57
2023/08/04 04:45:52;;;;;;;6.65;2.67;;;15.80;99.90;;;;;;5113418;28;20031;-57
2023/08/04 04:48:19;;;;;;;6.55;2.30;;;15.80;99.90;;;;;;5113314;28;20036;-58
2023/08/04 04:50:44;;;;;;;3.63;2.10;;;15.80;99.90;;;;;;5106855;28;20039;-58
2023/08/04 04:53:10;;;;;;;6.40;2.58;;;15.80;99.90;;;;;;5113281;28;20389;-58
2023/08/04 04:55:36;;;;;;;5.03;2.10;;;15.80;99.90;;;;;;5105107;28;20536;-58
2023/08/04 04:58:02;;;;;;;4.80;2.47;;;15.90;99.90;;;;;;5113082;28;20038;-58
2023/08/04 05:00:28;;;;;;;7.07;2.60;;;15.90;99.90;;;;;;5105682;28;20486;-58
2023/08/04 05:02:53;;;;;;;3.05;2.30;;;15.80;99.90;;;;;;5112019;28;20125;-58
2023/08/04 05:05:19;;;;;;;5.65;2.33;;;15.90;99.90;;;;;;5112887;28;20039;-58
2023/08/04 05:07:45;;;;;;;4.15;2.50;;;15.90;99.90;;;;;;5113100;28;20049;-58
2023/08/04 05:10:10;;;;;;;2.92;2.35;;;15.90;99.90;;;;;;5112560;28;20085;-58
2023/08/04 05:12:37;;;;;;;4.80;2.10;;;15.90;99.90;;;;;;5112981;28;20039;-58
2023/08/04 05:15:03;;;;;;;5.85;2.40;;;15.90;99.90;;;;;;5112922;28;20393;-58
2023/08/04 05:17:28;;;;;;;5.13;2.72;;;16.00;99.90;;;;;;5112697;28;20111;-57
2023/08/04 05:19:54;;;;;;;4.30;2.70;;;16.00;99.90;;;;;;5109284;28;20072;-58
2023/08/04 05:22:20;;;;;;;6.35;2.47;;;16.00;99.90;;;;;;5112830;28;20082;-57
2023/08/04 05:24:46;;;;;;;5.25;2.45;;;15.90;99.90;;;;;;5112893;28;20401;-58
2023/08/04 05:27:11;;;;;;;8.32;3.00;;;15.90;99.90;;;;;;5112244;28;20031;-58
2023/08/04 05:29:37;;;;;;;4.03;2.00;;;16.00;99.90;;;;;;5112846;28;20047;-57
2023/08/04 05:32:03;;;;;;;5.05;2.30;;;16.00;99.90;;;;;;5112307;28;22095;-58
2023/08/04 05:34:28;;;;;;;7.68;2.92;;;16.00;99.90;;;;;;5104823;28;20025;-57
2023/08/04 05:36:54;;;;;;;6.15;2.15;;;16.00;99.90;;;;;;5105707;28;20036;-57
2023/08/04 05:39:20;;;;;;;5.32;2.28;;;16.10;99.90;;;;;;5106160;28;20084;-57
2023/08/04 05:41:45;;;;;;;4.43;2.13;;;16.10;99.90;;;;;;5105247;28;20043;-57
2023/08/04 05:44:11;;;;;;;8.52;2.47;;;16.10;99.90;;;;;;5112439;28;20501;-58
2023/08/04 05:46:37;;;;;;;3.72;2.20;;;16.10;99.90;;;;;;5112629;28;20100;-57
2023/08/04 05:49:03;;;;;;;6.72;2.50;;;16.10;99.90;;;;;;5112021;28;20035;-57
2023/08/04 05:51:29;;;;;;;4.25;2.42;;;16.10;99.90;;;;;;5100966;28;20088;-57
2023/08/04 05:53:55;;;;;;;6.22;2.25;;;16.10;99.90;;;;;;5111199;28;20464;-58
2023/08/04 05:56:20;;;;;;;6.47;2.30;;;16.20;99.90;;;;;;5098789;28;20088;-58
2023/08/04 05:58:46;;;;;;;2.78;1.98;;;16.30;99.90;;;;;;5112255;28;20119;-57
2023/08/04 06:01:11;;;;;;;4.82;1.85;;;16.30;99.90;;;;;;5112406;28;20035;-57
2023/08/04 06:03:37;;;;;;;4.75;2.08;;;16.20;99.90;;;;;;5112399;28;20370;-57
2023/08/04 06:06:03;;;;;;;3.42;1.70;;;16.20;99.90;;;;;;5112188;28;20496;-57
2023/08/04 06:08:29;;;;;;;5.05;1.95;;;16.20;99.90;;;;;;5111676;28;20032;-57
2023/08/04 06:10:55;;;;;;;6.05;1.90;;;16.40;99.90;;;;;;5112155;28;20039;-57
2023/08/04 06:13:21;;;;;;;6.22;1.90;;;16.30;99.90;;;;;;5111961;28;20076;-57
2023/08/04 06:15:47;;;;;;;4.63;1.70;;;16.40;99.90;;;;;;5112107;28;20042;-58
2023/08/04 06:18:13;;;;;;;3.92;2.10;;;16.30;99.90;;;;;;5112247;28;20039;-58
2023/08/04 06:20:39;;;;;;;4.28;1.90;;;16.40;99.90;;;;;;5103992;28;20397;-58
2023/08/04 06:23:05;;;;;;;3.50;2.00;;;16.40;99.90;;;;;;5111909;28;20050;-58
2023/08/04 06:25:30;;;;;;;4.25;1.92;;;16.40;99.90;;;;;;5103911;28;20027;-57
2023/08/04 06:27:56;;;;;;;9.45;1.90;;;16.40;99.90;;;;;;5112207;28;20124;-57
2023/08/04 06:30:22;;;;;;;5.30;1.65;;;16.50;99.90;;;;;;5111865;28;20161;-58
2023/08/04 06:32:49;;;;;;;4.70;2.35;;;16.50;99.90;;;;;;5111686;28;20036;-57
2023/08/04 06:35:15;;;;;;;2.22;1.77;;;16.50;99.90;;;;;;5111711;28;20032;-57
2023/08/04 06:37:40;;;;;;;15.32;2.40;;;16.60;99.90;;;;;;5112497;28;20121;-57
2023/08/04 06:40:07;;;;;;;4.60;2.20;;;16.60;99.90;;;;;;5114329;28;20056;-58
2023/08/04 06:42:32;;;;;;;4.22;2.17;;;16.70;99.90;;;;;;5114499;28;20032;-59
2023/08/04 06:44:58;;;;;;;6.90;2.42;;;16.70;99.90;;;;;;5115677;28;20028;-57
2023/08/04 06:47:24;;;;;;;5.70;2.35;;;16.80;99.90;;;;;;5115527;28;20043;-57
2023/08/04 06:49:49;;;;;;;5.00;2.40;;;16.80;99.90;;;;;;5115981;28;20065;-57
2023/08/04 06:52:15;;;;;;;7.50;3.13;;;17.00;99.90;;;;;;5112335;28;20563;-57
2023/08/04 06:54:41;;;;;;;6.30;2.55;;;17.00;99.90;;;;;;5115615;28;20134;-57
2023/08/04 06:57:06;;;;;;;4.25;2.97;;;17.10;99.90;;;;;;5113068;27;20390;-58
2023/08/04 06:59:33;;;;;;;6.85;3.08;;;17.20;99.90;;;;;;5114319;28;20071;-58
2023/08/04 07:01:59;;;;;;;8.43;2.58;;;17.10;99.90;;;;;;5115553;28;20490;-58
2023/08/04 07:04:25;;;;;;;9.32;2.63;;;17.10;99.90;;;;;;5115309;28;20047;-57
2023/08/04 07:06:50;;;;;;;8.20;2.65;;;17.20;99.90;;;;;;5104483;28;20083;-58
2023/08/04 07:09:16;;;;;;;7.35;2.22;;;17.20;99.90;;;;;;5114861;28;20127;-57
2023/08/04 07:11:42;;;;;;;5.40;2.60;;;17.20;99.90;;;;;;5104021;28;20042;-58
2023/08/04 07:14:07;;;;;;;7.70;3.13;;;17.30;99.90;;;;;;5115322;28;20039;-58
2023/08/04 07:16:33;;;;;;;7.35;2.55;;;17.30;99.90;;;;;;5115271;28;20032;-58
2023/08/04 07:18:59;;;;;;;6.30;2.78;;;17.30;99.90;;;;;;5115015;28;20039;-59
2023/08/04 07:21:24;;;;;;;7.55;3.00;;;17.30;99.90;;;;;;5112252;28;20054;-58
2023/08/04 07:23:50;;;;;;;7.72;2.50;;;17.30;99.90;;;;;;5115030;28;20039;-57
2023/08/04 07:26:16;;;;;;;6.57;2.60;;;17.30;99.90;;;;;;5112303;28;20044;-57
2023/08/04 07:28:41;;;;;;;5.35;2.58;;;17.40;99.90;;;;;;5115052;28;20032;-58
2023/08/04 07:31:08;;;;;;;4.28;2.33;;;17.40;99.90;;;;;;5114892;28;20117;-58
2023/08/04 07:33:35;;;;;;;6.80;2.33;;;17.50;99.90;;;;;;5114888;28;20035;-58
2023/08/04 07:36:02;;;;;;;9.63;2.53;;;17.60;99.90;;;;;;5115341;28;20048;-57
2023/08/04 07:38:28;;;;;;;7.00;2.30;;;17.60;99.90;;;;;;5114888;28;20496;-58
2023/08/04 07:40:55;;;;;;;5.40;2.15;;;17.70;99.90;;;;;;5114940;27;20392;-58
2023/08/04 07:43:20;;;;;;;4.28;1.92;;;17.70;99.90;;;;;;5114728;28;20039;-59
2023/08/04 07:45:46;;;;;;;5.65;2.28;;;17.70;99.90;;;;;;5114453;28;20032;-61
2023/08/04 07:48:12;;;;;;;7.53;2.60;;;17.80;99.90;;;;;;5114440;27;20036;-58
2023/08/04 07:50:39;;;;;;;8.77;2.28;;;17.80;99.90;;;;;;5104808;28;20039;-59
2023/08/04 07:53:05;;;;;;;7.60;1.95;;;17.90;99.90;;;;;;5114795;28;20040;-58
2023/08/04 07:55:36;;;;;;;5.30;2.15;;;18.00;99.90;;;;;;5104817;28;20081;-58
2023/08/04 07:58:02;;;;;;;6.07;2.20;;;18.00;99.90;;;;;;5087006;28;20119;-57
2023/08/04 08:00:28;;;;;;;8.77;2.05;;;18.00;99.90;;;;;;5114242;28;20485;-57
2023/08/04 08:02:53;;;;;;;6.47;2.15;;;18.00;99.90;;;;;;5114019;28;20035;-59
2023/08/04 08:05:19;;;;;;;8.90;2.03;;;17.90;99.90;;;;;;5114205;28;20035;-57
2023/08/04 08:07:45;;;;;;;4.78;2.15;;;17.80;99.90;;;;;;5114032;28;20092;-58
2023/08/04 08:10:10;;;;;;;10.38;2.28;;;17.80;99.90;;;;;;5113930;28;20082;-58
2023/08/04 08:12:36;;;;;;;8.57;2.40;;;17.60;99.90;;;;;;5114008;28;20063;-59
2023/08/04 08:15:05;;;;;;;6.85;2.28;;;17.50;99.90;;;;;;5112524;28;20032;-58
2023/08/04 08:17:31;;;;;;;7.70;2.10;;;17.40;99.90;;;;;;5113643;28;20388;-57
2023/08/04 08:19:57;;;;;;;9.65;2.38;;;17.30;99.90;;;;;;5108958;28;20071;-57
2023/08/04 08:22:22;;;;;;;6.30;2.13;;;17.20;99.90;;;;;;5113868;28;20066;-57
2023/08/04 08:24:53;;;;;;;7.13;2.50;;;17.20;99.90;;;;;;5109766;28;20032;-58
2023/08/04 08:27:18;;;;;;;5.85;2.13;;;17.20;99.90;;;;;;5113353;28;20035;-58
2023/08/04 08:29:44;;;;;;;5.82;2.00;;;17.50;99.90;;;;;;5113601;28;20379;-57
2023/08/04 08:32:10;;;;;;;7.47;2.17;;;17.70;99.90;;;;;;5113443;27;20067;-58
2023/08/04 08:34:35;;;;;;;7.80;3.03;;;17.70;99.90;;;;;;5113446;28;20362;-57
2023/08/04 08:37:02;;;;;;;6.38;2.10;;;18.00;99.90;;;;;;5113499;28;20093;-58
2023/08/04 08:39:29;;;;;;;6.20;2.10;;;18.10;99.90;;;;;;5113173;28;20135;-58
2023/08/04 08:41:58;;;;;;;6.53;2.35;;;18.10;99.90;;;;;;5112373;28;20130;-58
2023/08/04 08:44:24;;;;;;;8.60;2.72;;;18.10;99.90;;;;;;5113609;28;20359;-58
2023/08/04 08:46:50;;;;;;;6.15;1.50;;;17.90;99.90;;;;;;5113382;28;20058;-59
2023/08/04 08:49:15;;;;;;;3.78;1.25;;;17.70;99.90;;;;;;5112952;28;20080;-57
2023/08/04 08:51:48;;;;;;;5.72;1.38;;;17.60;99.90;;;;;;5104435;28;20393;-57
2023/08/04 08:54:15;;;;;;;4.78;1.65;;;17.40;99.90;;;;;;5113226;28;20382;-59
2023/08/04 08:56:41;;;;;;;6.13;2.30;;;17.40;99.90;;;;;;5104075;28;20078;-58
2023/08/04 08:59:07;;;;;;;5.47;2.03;;;17.40;99.90;;;;;;5113017;27;20446;-58
2023/08/04 09:01:34;;;;;;;7.25;1.80;;;17.40;99.90;;;;;;5112451;28;20084;-58
2023/08/04 09:04:00;;;;;;;5.65;1.80;;;17.40;99.90;;;;;;5112844;28;20043;-57
2023/08/04 09:06:26;;;;;;;6.03;2.10;;;17.50;99.90;;;;;;5113058;28;20058;-58
2023/08/04 09:08:53;;;;;;;13.95;2.50;;;17.70;99.90;;;;;;5113054;28;20485;-58
2023/08/04 09:11:19;;;;;;;7.80;2.45;;;18.00;99.90;;;;;;5112563;28;20474;-58
2023/08/04 09:13:45;;;;;;;6.35;1.98;;;18.20;99.90;;;;;;5111828;28;20092;-59
2023/08/04 09:16:15;;;;;;;6.28;1.90;;;18.30;99.90;;;;;;5112533;28;20042;-59
2023/08/04 09:18:42;;;;;;;4.95;2.00;;;18.30;99.90;;;;;;5112817;28;20168;-58
2023/08/04 09:21:08;;;;;;;5.82;1.80;;;18.30;99.90;;;;;;5111018;28;20040;-58
2023/08/04 09:23:52;;;;;;;8.88;2.80;;;18.30;99.90;;;;;;5112623;28;20042;-58
2023/08/04 09:26:18;;;;;;;9.77;2.38;;;18.40;99.90;;;;;;5110524;28;20052;-60
2023/08/04 09:28:44;;;;;;;7.85;2.25;;;18.40;99.90;;;;;;5112814;28;20051;-58
2023/08/04 09:31:12;;;;;;;7.70;2.33;;;18.40;99.90;;;;;;5112922;28;20043;-58
2023/08/04 09:33:43;;;;;;;8.83;2.20;;;18.30;99.90;;;;;;5111514;28;20367;-58
2023/08/04 09:36:11;;;;;;;11.20;2.70;;;18.30;99.90;;;;;;5112545;28;20333;-58
2023/08/04 09:38:38;;;;;;;6.60;2.13;;;18.10;99.90;;;;;;5111519;28;20225;-58
2023/08/04 09:41:12;;;;;;;10.77;2.40;;;18.00;99.90;;;;;;5098827;28;20051;-57
2023/08/04 09:43:49;;;;;;;6.80;2.40;;;17.90;99.90;;;;;;5111663;28;20043;-58
2023/08/04 09:46:16;;;;;;;7.47;2.63;;;17.80;99.90;;;;;;5112401;28;20039;-57
2023/08/04 09:48:42;;;;;;;5.72;2.28;;;17.80;99.90;;;;;;5111791;28;20042;-58
2023/08/04 09:51:10;;;;;;;9.27;2.25;;;17.80;99.90;;;;;;5112284;28;20032;-57
2023/08/04 09:53:47;;;;;;;8.48;2.63;;;17.90;99.90;;;;;;5112188;28;20489;-59
2023/08/04 09:56:14;;;;;;;6.53;2.38;;;17.90;99.90;;;;;;5111551;28;20519;-57
2023/08/04 09:58:41;;;;;;;6.28;1.60;;;18.00;99.90;;;;;;5112322;28;20408;-57
2023/08/04 10:01:07;;;;;;;4.45;1.50;;;18.10;99.90;;;;;;5112040;28;20035;-59
2023/08/04 10:03:34;;;;;;;4.50;1.98;;;18.20;99.90;;;;;;5112145;28;20035;-57
2023/08/04 10:06:01;;;;;;;6.13;1.90;;;18.30;99.90;;;;;;5111786;27;20401;-58
2023/08/04 10:08:32;;;;;;;6.63;2.03;;;18.60;99.90;;;;;;5110703;28;20089;-58
2023/08/04 10:10:58;;;;;;;7.28;2.00;;;18.70;99.90;;;;;;5111678;28;20097;-59
2023/08/04 10:13:32;;;;;;;6.75;2.33;;;18.90;99.90;;;;;;5114345;28;20077;-58
2023/08/04 10:16:00;;;;;;;11.00;2.95;;;19.20;99.90;;;;;;5116499;28;20043;-58
2023/08/04 10:18:25;;;;;;;11.10;2.00;;;19.30;99.90;;;;;;5116848;28;20040;-59
2023/08/04 10:20:52;;;;;;;3.75;1.40;;;19.30;99.90;;;;;;5114394;28;20913;-59
2023/08/04 10:23:18;;;;;;;3.58;1.17;;;19.50;99.90;;;;;;5115281;28;20118;-58
2023/08/04 10:25:55;;;;;;;3.50;1.20;;;19.70;99.90;;;;;;5114297;28;20078;-59
2023/08/04 10:28:21;;;;;;;3.55;0.88;;;19.80;99.90;;;;;;5116035;28;20118;-58
2023/08/04 10:31:01;;;;;;;3.95;1.10;;;19.80;99.90;;;;;;5116057;28;20036;-59
2023/08/04 10:33:26;;;;;;;3.67;1.20;;;20.10;99.90;;;;;;5116199;27;20036;-59
2023/08/04 10:36:08;;;;;;;2.20;0.93;;;20.40;99.90;;;;;;5116288;28;20386;-60
2023/08/04 10:38:49;;;;;;;7.35;1.20;;;20.50;99.90;;;;;;5115954;28;20031;-59
2023/08/04 10:41:15;;;;;;;6.05;1.10;;;20.20;99.90;;;;;;5115386;27;20056;-59
2023/08/04 10:43:57;;;;;;;3.53;0.98;;;20.30;99.90;;;;;;5115604;28;20031;-59
2023/08/04 10:46:24;;;;;;;4.45;1.30;;;20.60;99.90;;;;;;5115905;28;20028;-59
2023/08/04 10:48:50;;;;;;;6.05;0.95;;;20.50;99.90;;;;;;5115773;28;20043;-57
2023/08/04 10:51:17;;;;;;;4.07;1.30;;;20.30;99.90;;;;;;5113125;28;20040;-58
2023/08/04 10:53:42;;;;;;;3.75;0.90;;;20.30;99.90;;;;;;5115521;28;20123;-58
2023/08/04 10:56:08;;;;;;;2.58;0.95;;;20.40;99.90;;;;;;5113096;27;20110;-57
2023/08/04 10:58:35;;;;;;;5.40;1.30;;;20.50;99.90;;;;;;5115607;28;20044;-58
2023/08/04 11:01:01;;;;;;;3.38;1.00;;;20.50;99.90;;;;;;5115778;28;20088;-58
2023/08/04 11:03:38;;;;;;;3.22;0.80;;;20.50;99.90;;;;;;5115567;28;20039;-58
2023/08/04 11:06:04;;;;;;;2.95;1.00;;;20.30;99.90;;;;;;5115280;28;20035;-58
2023/08/04 11:08:31;;;;;;;3.88;1.30;;;20.20;99.90;;;;;;5115509;28;20118;-59
2023/08/04 11:10:57;;;;;;;3.15;1.00;;;20.00;99.90;;;;;;5115461;28;20043;-58
2023/08/04 11:13:24;;;;;;;4.32;1.42;;;20.00;99.90;;;;;;5114466;28;20040;-58
2023/08/04 11:15:53;;;;;;;3.58;1.10;;;20.20;99.90;;;;;;5115255;28;20553;-57
2023/08/04 11:18:24;;;;;;;5.93;1.17;;;20.30;99.90;;;;;;5114963;28;20040;-58
2023/08/04 11:20:50;;;;;;;18.67;1.25;;;20.50;99.90;;;;;;5109350;28;20047;-58
2023/08/04 11:23:26;;;;;;;3.03;0.80;;;20.80;99.90;;;;;;5114449;28;20035;-58
2023/08/04 11:25:52;;;;;;;2.50;0.95;;;20.90;99.90;;;;;;5109345;28;20055;-58
2023/08/04 11:28:19;;;;;;;2.78;0.95;;;20.90;99.90;;;;;;5113589;28;20079;-58
2023/08/04 11:30:45;;;;;;;6.97;1.33;;;20.90;99.90;;;;;;5114928;28;20092;-58
2023/08/04 11:33:11;;;;;;;4.78;1.40;;;20.90;99.90;;;;;;5114740;28;20573;-58
2023/08/04 11:35:36;;;;;;;4.57;1.02;;;20.80;99.90;;;;;;5114622;28;20039;-57
2023/08/04 11:38:05;;;;;;;2.53;0.90;;;20.90;99.90;;;;;;5115004;28;20164;-59
2023/08/04 11:40:31;;;;;;;10.52;1.33;;;20.90;99.90;;;;;;5114375;28;20047;-58
2023/08/04 11:43:01;;;;;;;6.70;1.27;;;20.90;99.90;;;;;;5114777;28;20520;-58
2023/08/04 11:45:31;;;;;;;3.65;1.20;;;20.70;99.90;;;;;;5114713;28;20054;-59
2023/08/04 11:47:57;;;;;;;4.00;1.50;;;20.90;99.90;;;;;;5114713;28;20039;-59
2023/08/04 11:50:25;;;;;;;2.40;1.00;;;20.90;99.90;;;;;;5104397;28;20036;-59
2023/08/04 11:52:51;;;;;;;3.37;0.80;;;21.00;99.90;;;;;;5114472;28;20394;-58
2023/08/04 11:55:17;;;;;;;5.35;1.45;;;21.10;99.90;;;;;;5106063;28;20289;-58
2023/08/04 11:57:52;;;;;;;3.63;1.05;;;21.10;99.90;;;;;;5112236;28;20481;-58
2023/08/04 12:00:38;;;;;;;5.20;0.98;;;21.00;99.90;;;;;;5114410;28;20126;-58
2023/08/04 12:03:04;;;;;;;2.47;0.98;;;21.10;99.90;;;;;;5114819;28;20440;-57
2023/08/04 12:05:38;;;;;;;3.67;1.00;;;21.00;99.90;;;;;;5114442;28;20039;-58
2023/08/04 12:08:14;;;;;;;3.58;0.88;;;21.10;99.90;;;;;;5114059;28;20042;-58
2023/08/04 12:10:41;;;;;;;3.95;1.08;;;20.70;99.90;;;;;;5114143;28;20050;-58
2023/08/04 12:13:07;;;;;;;5.75;1.45;;;20.80;99.90;;;;;;5113974;27;20438;-58
2023/08/04 12:15:54;;;;;;;4.90;1.40;;;20.90;99.90;;;;;;5114171;28;20089;-58
2023/08/04 12:18:24;;;;;;;2.88;1.10;;;21.30;99.90;;;;;;5113932;28;20394;-58
2023/08/04 12:20:49;;;;;;;3.15;1.30;;;21.30;99.90;;;;;;5111031;28;20044;-58
2023/08/04 12:23:15;;;;;;;2.53;1.30;;;21.20;99.90;;;;;;5113649;28;20496;-58
2023/08/04 12:25:41;;;;;;;3.20;1.42;;;21.10;99.90;;;;;;5111581;28;20434;-58
2023/08/04 12:28:06;;;;;;;2.65;0.82;;;21.00;99.90;;;;;;5113797;28;20035;-58
2023/08/04 12:30:32;;;;;;;4.45;0.90;;;20.90;99.90;;;;;;5113851;28;20047;-57
2023/08/04 12:32:57;;;;;;;2.40;1.27;;;20.90;99.90;;;;;;5113815;28;20397;-58
2023/08/04 12:35:23;;;;;;;10.50;1.10;;;20.90;99.90;;;;;;5112440;28;20389;-58
2023/08/04 12:37:49;;;;;;;3.03;1.15;;;20.90;99.90;;;;;;5113467;28;20035;-58
2023/08/04 12:40:14;;;;;;;4.53;1.48;;;20.90;99.90;;;;;;5113251;28;20486;-58
2023/08/04 12:42:40;;;;;;;3.58;1.08;;;20.90;99.90;;;;;;5113703;27;20119;-58
2023/08/04 12:45:06;;;;;;;3.67;1.13;;;20.90;99.90;;;;;;5113550;28;20035;-59